メインページ
METAR-TAF:

METAR-TAF

空港 :

ストックホルム・アーランダ, スウェーデン

ストックホルム・アーランダ空港

緯度: 59-39N, 経度: 017-57E, 海抜: 38m

現時点の気象観測

当レポートは28分前の09:20(UTC)に作成
北/北西の風 20kt
気温 7°C
湿度 45%
気圧 1019 hPa
視程10km以上
1,500メートル以下は雲なし、積乱雲なし

METAR: ESSA 250920Z 33020KT CAVOK 07/M04 Q1019 R01L/19//95 R08/19//95 R01R/19//95 NOSIG

時間: 10:48 (09:48 UTC)

予報

当レポートは46分前の09:02(UTC)に作成
予報は25日の 09時(UTC)から 26日の 06時(UTC)まで有効
北/北西の風 15kt、最大27ktの突風を伴う
視程10km以上
1,500メートル以下は雲なし、積乱雲なし
25日の 13時(UTC)から 25日の 15時(UTC)まで徐々に
西の風 5kt
25日の 22時(UTC)から 25日の 24時(UTC)まで徐々に
南西の風 10kt

TAF: ESSA 250902Z 2509/2606 33015G27KT CAVOK BECMG 2513/2515 28005KT BECMG 2522/2524 22010KT

4,000以上の空港の気象観測と天気予報(METAR報とTAF報)

利用可能な観測所は地図上に黄色い丸と赤い丸で示す。

丸の上にカーソルを重ねると観測所名を参照できる。

次にクリックすると気象観測と天気予報を参照できる。

マップの切り替え:黒色「×」印の緑ボタンをクリックして拡大、「-」印の緑ボタンをクリックして縮小、緑色の三角印をクリックして隣りの地図に切り替え


METAR-TAF: